createdAt,value
2023-01-13T00:03:02.470Z,0.27
2023-01-13T00:08:10.460Z,0.15
2023-01-13T00:13:15.808Z,0.30
2023-01-13T00:18:21.135Z,0.20
2023-01-13T00:23:30.241Z,0.40
2023-01-13T00:28:36.106Z,0.40
2023-01-13T00:33:41.756Z,0.30
2023-01-13T00:38:50.067Z,0.27
2023-01-13T00:43:55.372Z,0.28
2023-01-13T00:49:00.608Z,0.40
2023-01-13T00:54:08.961Z,0.97
2023-01-13T00:59:15.993Z,0.10
2023-01-13T01:04:21.272Z,0.30
2023-01-13T01:09:32.881Z,0.20
2023-01-13T01:14:38.361Z,0.70
2023-01-13T01:19:43.642Z,0.50
2023-01-13T01:24:53.123Z,0.40
2023-01-13T01:29:58.453Z,0.30
2023-01-13T01:35:04.999Z,0.50
2023-01-13T01:40:14.660Z,0.45
2023-01-13T01:45:22.927Z,0.30
2023-01-13T01:50:28.899Z,0.63
2023-01-13T01:55:39.443Z,0.90
2023-01-13T02:00:44.802Z,0.68
2023-01-13T02:05:50.316Z,0.40
2023-01-13T02:10:58.814Z,0.47
2023-01-13T02:16:13.251Z,0.43
2023-01-13T02:21:38.324Z,0.40
2023-01-13T02:27:17.884Z,0.50
2023-01-13T02:32:31.886Z,0.95
2023-01-13T02:37:41.770Z,0.37
2023-01-13T02:43:06.232Z,0.40
2023-01-13T02:48:16.479Z,0.40
2023-01-13T02:53:28.822Z,0.38
2023-01-13T02:58:35.964Z,0.40
2023-01-13T03:03:44.007Z,0.53
2023-01-13T03:08:55.314Z,1.13
2023-01-13T03:14:12.782Z,0.60
2023-01-13T03:19:32.035Z,0.40
2023-01-13T03:24:41.689Z,0.70
2023-01-13T03:29:51.470Z,0.53
2023-01-13T03:35:03.460Z,0.60
2023-01-13T03:40:15.688Z,0.50
2023-01-13T03:45:22.910Z,0.80
2023-01-13T03:50:35.623Z,0.70
2023-01-13T03:55:47.813Z,0.60
2023-01-13T04:00:59.005Z,0.70
2023-01-13T04:06:15.334Z,1.17
2023-01-13T04:11:25.320Z,1.40
2023-01-13T04:16:30.751Z,0.50
2023-01-13T04:21:38.812Z,0.70
2023-01-13T04:26:44.089Z,0.70
2023-01-13T04:31:49.369Z,1.00
2023-01-13T04:36:57.275Z,0.82
2023-01-13T04:42:02.777Z,0.65
2023-01-13T04:47:08.629Z,1.80
2023-01-13T04:52:16.500Z,0.70
2023-01-13T04:57:21.753Z,0.77
2023-01-13T05:02:27.106Z,0.85
2023-01-13T05:07:35.524Z,1.40
2023-01-13T05:12:53.319Z,1.03
2023-01-13T05:17:58.647Z,0.85
2023-01-13T05:23:19.269Z,1.07
2023-01-13T05:28:24.727Z,1.98
2023-01-13T05:33:30.038Z,1.13
2023-01-13T05:38:37.958Z,1.03
2023-01-13T05:43:43.244Z,1.30
2023-01-13T05:48:48.919Z,1.03
2023-01-13T05:54:01.931Z,0.90
2023-01-13T05:59:07.660Z,1.25
2023-01-13T06:04:12.981Z,0.87
2023-01-13T06:09:21.157Z,3.72
2023-01-13T06:14:39.958Z,1.37
2023-01-13T06:19:45.833Z,1.10
2023-01-13T06:24:55.239Z,1.23
2023-01-13T06:30:01.208Z,0.73
2023-01-13T06:35:10.980Z,1.00
2023-01-13T06:40:19.973Z,1.13
2023-01-13T06:45:26.289Z,0.80
2023-01-13T06:50:32.033Z,1.35
2023-01-13T06:55:40.332Z,1.07
2023-01-13T07:00:49.765Z,0.80
2023-01-13T07:05:57.633Z,1.50
2023-01-13T07:11:07.190Z,1.23
2023-01-13T07:16:12.656Z,1.10
2023-01-13T07:21:19.817Z,0.80
2023-01-13T07:26:27.807Z,0.90
2023-01-13T07:31:33.124Z,0.90
2023-01-13T07:36:39.366Z,0.80
2023-01-13T07:41:59.725Z,1.30
2023-01-13T07:47:06.057Z,0.73
2023-01-13T07:52:11.478Z,1.02
2023-01-13T07:57:19.425Z,0.90
2023-01-13T08:02:25.075Z,1.90
2023-01-13T08:07:30.549Z,1.05
2023-01-13T08:12:54.527Z,0.90
2023-01-13T08:18:02.825Z,1.08
2023-01-13T08:23:08.746Z,1.00
2023-01-13T08:28:17.648Z,0.75
2023-01-13T08:33:29.487Z,0.80
2023-01-13T08:38:55.359Z,1.20
2023-01-13T08:44:03.317Z,1.10
2023-01-13T08:49:08.678Z,1.10
2023-01-13T08:54:14.416Z,1.02
2023-01-13T08:59:24.295Z,0.90
2023-01-13T09:04:31.255Z,1.47
2023-01-13T09:09:36.796Z,1.30
2023-01-13T09:14:45.031Z,1.43
2023-01-13T09:19:50.536Z,1.77
2023-01-13T09:24:56.272Z,1.45
2023-01-13T09:30:04.553Z,2.13
2023-01-13T09:35:11.164Z,1.83
2023-01-13T09:40:22.801Z,1.53
2023-01-13T09:45:36.881Z,1.98
2023-01-13T09:50:55.658Z,1.58
2023-01-13T09:56:01.057Z,1.80
2023-01-13T10:01:21.791Z,2.03
2023-01-13T10:06:36.151Z,1.90
2023-01-13T10:11:57.857Z,1.58
2023-01-13T10:17:13.134Z,1.88
2023-01-13T10:22:31.018Z,1.90
2023-01-13T10:27:38.347Z,1.45
2023-01-13T10:32:53.750Z,1.83
2023-01-13T10:38:00.356Z,2.40
2023-01-13T10:43:09.215Z,1.65
2023-01-13T10:48:17.661Z,1.50
2023-01-13T10:53:28.397Z,1.73
2023-01-13T10:58:33.760Z,1.90
2023-01-13T11:03:49.331Z,1.60
2023-01-13T11:08:58.304Z,2.25
2023-01-13T11:14:28.655Z,1.67
2023-01-13T11:19:38.112Z,1.50
2023-01-13T11:24:50.775Z,1.90
2023-01-13T11:30:09.968Z,2.67
2023-01-13T11:35:23.384Z,1.30
2023-01-13T11:40:35.623Z,2.13
2023-01-13T11:45:45.263Z,1.77
2023-01-13T11:51:00.651Z,1.90
2023-01-13T11:56:24.485Z,1.55
2023-01-13T12:01:47.358Z,1.73
2023-01-13T12:07:07.475Z,1.73
2023-01-13T12:12:23.070Z,1.75
2023-01-13T12:17:37.359Z,2.70
2023-01-13T12:22:47.398Z,2.05
2023-01-13T12:27:58.719Z,1.70
2023-01-13T12:33:18.693Z,1.40
2023-01-13T12:38:36.012Z,1.77
2023-01-13T12:44:01.688Z,1.70
2023-01-13T12:49:08.883Z,1.30
2023-01-13T12:54:59.184Z,2.13
2023-01-13T13:00:25.489Z,1.13
2023-01-13T13:05:51.473Z,1.13
2023-01-13T13:11:39.050Z,1.00
2023-01-13T13:16:52.451Z,1.33
2023-01-13T13:22:19.663Z,1.38
2023-01-13T13:27:30.960Z,1.30
2023-01-13T13:32:59.323Z,1.60
2023-01-13T13:38:31.767Z,1.83
2023-01-13T13:43:58.179Z,1.50
2023-01-13T13:49:08.144Z,1.58
2023-01-13T13:54:16.312Z,1.30
2023-01-13T13:59:27.078Z,1.60
2023-01-13T14:04:35.607Z,2.00
2023-01-13T14:09:47.210Z,1.67
2023-01-13T14:14:57.999Z,1.63
2023-01-13T14:20:08.008Z,1.90
2023-01-13T14:25:32.784Z,1.77
2023-01-13T14:30:41.131Z,1.53
2023-01-13T14:36:08.103Z,1.90
2023-01-13T14:41:18.900Z,1.52
2023-01-13T14:46:27.196Z,1.97
2023-01-13T14:51:34.138Z,1.67
2023-01-13T14:56:47.851Z,1.60
2023-01-13T15:01:58.854Z,1.98
2023-01-13T15:07:05.487Z,2.10
2023-01-13T15:12:29.299Z,2.37
2023-01-13T15:17:38.711Z,1.58
2023-01-13T15:22:44.159Z,1.57
2023-01-13T15:27:51.892Z,1.90
2023-01-13T15:33:01.674Z,2.05
2023-01-13T15:38:14.229Z,1.37
2023-01-13T15:43:34.199Z,1.95
2023-01-13T15:48:42.204Z,1.77
2023-01-13T15:53:47.573Z,1.48
2023-01-13T15:58:53.261Z,1.88
2023-01-13T16:04:01.645Z,1.70
2023-01-13T16:09:09.068Z,1.50
2023-01-13T16:14:17.749Z,1.60
2023-01-13T16:19:25.851Z,2.03
2023-01-13T16:24:32.782Z,1.60
2023-01-13T16:29:38.271Z,1.60
2023-01-13T16:34:46.986Z,2.10
2023-01-13T16:39:55.397Z,1.97
2023-01-13T16:45:08.415Z,2.05
2023-01-13T16:50:25.773Z,1.80
2023-01-13T16:55:31.465Z,2.13
2023-01-13T17:00:36.876Z,1.75
2023-01-13T17:05:46.993Z,1.93
2023-01-13T17:10:54.891Z,1.65
2023-01-13T17:16:00.490Z,1.95
2023-01-13T17:21:09.081Z,2.03
2023-01-13T17:26:32.371Z,1.63
2023-01-13T17:31:38.856Z,2.00
2023-01-13T17:36:46.894Z,1.85
2023-01-13T17:41:52.666Z,1.80
2023-01-13T17:46:58.026Z,2.67
2023-01-13T17:52:07.154Z,2.33
2023-01-13T17:57:12.554Z,2.43
2023-01-13T18:02:18.039Z,2.75
2023-01-13T18:07:27.873Z,2.45
2023-01-13T18:12:35.019Z,1.97
2023-01-13T18:17:40.418Z,2.47
2023-01-13T18:23:01.732Z,2.13
2023-01-13T18:28:07.722Z,2.10
2023-01-13T18:33:13.326Z,1.98
2023-01-13T18:38:22.291Z,2.10
2023-01-13T18:43:28.529Z,1.90
2023-01-13T18:48:34.069Z,1.80
2023-01-13T18:53:42.066Z,2.50
2023-01-13T18:58:51.828Z,1.23
2023-01-13T19:03:58.257Z,2.23
2023-01-13T19:09:08.735Z,1.73
2023-01-13T19:14:34.097Z,1.73
2023-01-13T19:19:43.853Z,1.57
2023-01-13T19:24:56.239Z,1.38
2023-01-13T19:30:03.591Z,1.67
2023-01-13T19:35:13.124Z,1.33
2023-01-13T19:40:28.318Z,1.45
2023-01-13T19:45:47.228Z,1.53
2023-01-13T19:50:52.604Z,2.17
2023-01-13T19:56:01.112Z,2.70
2023-01-13T20:01:10.273Z,2.10
2023-01-13T20:06:15.760Z,1.98
2023-01-13T20:11:31.396Z,1.90
2023-01-13T20:16:38.040Z,2.28
2023-01-13T20:21:45.532Z,2.10
2023-01-13T20:26:53.987Z,2.97
2023-01-13T20:32:00.356Z,2.05
2023-01-13T20:37:05.849Z,2.30
2023-01-13T20:42:39.843Z,3.10
2023-01-13T20:47:49.321Z,3.13
2023-01-13T20:52:55.402Z,2.67
2023-01-13T20:58:03.298Z,2.22
2023-01-13T21:03:08.654Z,1.97
2023-01-13T21:08:14.371Z,2.20
2023-01-13T21:13:35.133Z,2.30
2023-01-13T21:19:10.878Z,2.17
2023-01-13T21:24:18.898Z,3.45
2023-01-13T21:29:26.967Z,2.40
2023-01-13T21:34:32.948Z,2.80
2023-01-13T21:39:38.213Z,2.30
2023-01-13T21:44:58.516Z,2.10
2023-01-13T21:50:03.944Z,2.42
2023-01-13T21:55:28.407Z,2.27
2023-01-13T22:00:36.432Z,2.22
2023-01-13T22:05:42.387Z,2.70
2023-01-13T22:10:57.973Z,2.42
2023-01-13T22:16:09.317Z,2.03
2023-01-13T22:21:14.705Z,2.83
2023-01-13T22:26:20.172Z,2.83
2023-01-13T22:31:28.229Z,2.70
2023-01-13T22:36:33.598Z,2.90
2023-01-13T22:41:38.914Z,2.83
2023-01-13T22:46:46.837Z,2.80
2023-01-13T22:51:55.404Z,3.17
2023-01-13T22:57:00.710Z,3.03
2023-01-13T23:02:08.627Z,2.75
2023-01-13T23:07:13.944Z,3.30
2023-01-13T23:12:19.273Z,2.77
2023-01-13T23:17:27.276Z,2.67
2023-01-13T23:22:32.603Z,3.17
2023-01-13T23:27:38.468Z,2.83
2023-01-13T23:32:46.361Z,3.10
2023-01-13T23:37:51.647Z,2.20
2023-01-13T23:42:56.952Z,3.20
2023-01-13T23:48:04.835Z,2.67
2023-01-13T23:53:10.435Z,3.20
2023-01-13T23:58:15.779Z,2.75
